sensor_id;sensor_type;location;lat;lon;timestamp;temperature;humidity
14401;DHT22;7285;50.894;5.462;2022-08-21T00:01:11;13.90;1.00
14401;DHT22;7285;50.894;5.462;2022-08-21T00:03:39;13.90;1.00
14401;DHT22;7285;50.894;5.462;2022-08-21T00:06:07;13.80;1.00
14401;DHT22;7285;50.894;5.462;2022-08-21T00:08:34;13.70;1.00
14401;DHT22;7285;50.894;5.462;2022-08-21T00:11:04;13.70;1.00
14401;DHT22;7285;50.894;5.462;2022-08-21T00:13:31;13.70;1.00
14401;DHT22;7285;50.894;5.462;2022-08-21T00:15:58;13.70;1.00
14401;DHT22;7285;50.894;5.462;2022-08-21T00:18:26;13.70;1.00
14401;DHT22;7285;50.894;5.462;2022-08-21T00:20:53;13.60;1.00
14401;DHT22;7285;50.894;5.462;2022-08-21T00:23:20;13.60;1.00
14401;DHT22;7285;50.894;5.462;2022-08-21T00:25:48;13.60;1.00
14401;DHT22;7285;50.894;5.462;2022-08-21T00:28:16;13.60;1.00
14401;DHT22;7285;50.894;5.462;2022-08-21T00:30:44;13.60;1.00
14401;DHT22;7285;50.894;5.462;2022-08-21T00:33:12;13.50;1.00
14401;DHT22;7285;50.894;5.462;2022-08-21T00:35:40;13.50;1.00
14401;DHT22;7285;50.894;5.462;2022-08-21T00:38:08;13.50;1.00
14401;DHT22;7285;50.894;5.462;2022-08-21T00:40:39;13.50;1.00
14401;DHT22;7285;50.894;5.462;2022-08-21T00:43:09;13.50;1.00
14401;DHT22;7285;50.894;5.462;2022-08-21T00:45:38;13.40;1.00
14401;DHT22;7285;50.894;5.462;2022-08-21T00:48:05;13.50;1.00
14401;DHT22;7285;50.894;5.462;2022-08-21T00:50:36;13.40;1.00
14401;DHT22;7285;50.894;5.462;2022-08-21T00:53:06;13.40;1.00
14401;DHT22;7285;50.894;5.462;2022-08-21T00:55:35;13.40;1.00
14401;DHT22;7285;50.894;5.462;2022-08-21T00:58:04;13.30;1.00
14401;DHT22;7285;50.894;5.462;2022-08-21T01:00:35;13.30;1.00
14401;DHT22;7285;50.894;5.462;2022-08-21T01:03:08;13.20;1.00
14401;DHT22;7285;50.894;5.462;2022-08-21T01:05:37;13.20;1.00
14401;DHT22;7285;50.894;5.462;2022-08-21T01:08:05;13.20;1.00
14401;DHT22;7285;50.894;5.462;2022-08-21T01:10:33;13.20;1.00
14401;DHT22;7285;50.894;5.462;2022-08-21T01:13:01;13.20;1.00
14401;DHT22;7285;50.894;5.462;2022-08-21T01:15:32;13.10;1.00
14401;DHT22;7285;50.894;5.462;2022-08-21T01:18:00;13.10;1.00
14401;DHT22;7285;50.894;5.462;2022-08-21T01:20:29;13.20;1.00
14401;DHT22;7285;50.894;5.462;2022-08-21T01:22:57;13.10;1.00
14401;DHT22;7285;50.894;5.462;2022-08-21T01:25:24;13.10;1.00
14401;DHT22;7285;50.894;5.462;2022-08-21T01:27:51;13.10;1.00
14401;DHT22;7285;50.894;5.462;2022-08-21T01:30:20;13.10;1.00
14401;DHT22;7285;50.894;5.462;2022-08-21T01:32:48;13.00;1.00
14401;DHT22;7285;50.894;5.462;2022-08-21T01:35:17;13.10;1.00
14401;DHT22;7285;50.894;5.462;2022-08-21T01:37:45;13.10;1.00
14401;DHT22;7285;50.894;5.462;2022-08-21T01:40:16;13.00;1.00
14401;DHT22;7285;50.894;5.462;2022-08-21T01:42:44;13.00;1.00
14401;DHT22;7285;50.894;5.462;2022-08-21T01:45:13;12.90;1.00
14401;DHT22;7285;50.894;5.462;2022-08-21T01:47:40;12.90;1.00
14401;DHT22;7285;50.894;5.462;2022-08-21T01:50:11;12.90;1.00
14401;DHT22;7285;50.894;5.462;2022-08-21T01:52:39;12.80;1.00
14401;DHT22;7285;50.894;5.462;2022-08-21T01:55:08;12.80;1.00
14401;DHT22;7285;50.894;5.462;2022-08-21T01:57:37;12.80;1.00
14401;DHT22;7285;50.894;5.462;2022-08-21T02:00:05;12.80;1.00
14401;DHT22;7285;50.894;5.462;2022-08-21T02:02:32;12.70;1.00
14401;DHT22;7285;50.894;5.462;2022-08-21T02:04:58;12.60;1.00
14401;DHT22;7285;50.894;5.462;2022-08-21T02:07:25;12.60;1.00
14401;DHT22;7285;50.894;5.462;2022-08-21T02:09:52;12.60;1.00
14401;DHT22;7285;50.894;5.462;2022-08-21T02:12:20;12.60;1.00
14401;DHT22;7285;50.894;5.462;2022-08-21T02:14:48;12.60;1.00
14401;DHT22;7285;50.894;5.462;2022-08-21T02:17:15;12.60;1.00
14401;DHT22;7285;50.894;5.462;2022-08-21T02:19:42;12.60;1.00
14401;DHT22;7285;50.894;5.462;2022-08-21T02:22:09;12.60;1.00
14401;DHT22;7285;50.894;5.462;2022-08-21T02:24:36;12.60;1.00
14401;DHT22;7285;50.894;5.462;2022-08-21T02:27:15;12.50;1.00
14401;DHT22;7285;50.894;5.462;2022-08-21T02:29:42;12.40;1.00
14401;DHT22;7285;50.894;5.462;2022-08-21T02:32:11;12.40;1.00
14401;DHT22;7285;50.894;5.462;2022-08-21T02:34:37;12.40;1.00
14401;DHT22;7285;50.894;5.462;2022-08-21T02:37:05;12.40;1.00
14401;DHT22;7285;50.894;5.462;2022-08-21T02:42:58;12.30;1.00
14401;DHT22;7285;50.894;5.462;2022-08-21T02:45:26;12.30;99.90
14401;DHT22;7285;50.894;5.462;2022-08-21T02:47:56;12.30;99.90
14401;DHT22;7285;50.894;5.462;2022-08-21T02:50:30;12.30;93.10
14401;DHT22;7285;50.894;5.462;2022-08-21T02:52:58;12.30;99.90
14401;DHT22;7285;50.894;5.462;2022-08-21T02:55:27;12.20;99.90
14401;DHT22;7285;50.894;5.462;2022-08-21T02:57:55;12.20;99.90
14401;DHT22;7285;50.894;5.462;2022-08-21T03:00:24;12.20;99.90
14401;DHT22;7285;50.894;5.462;2022-08-21T03:02:51;12.20;99.90
14401;DHT22;7285;50.894;5.462;2022-08-21T03:05:26;12.20;99.90
14401;DHT22;7285;50.894;5.462;2022-08-21T03:07:54;12.10;99.90
14401;DHT22;7285;50.894;5.462;2022-08-21T03:10:21;12.10;99.90
14401;DHT22;7285;50.894;5.462;2022-08-21T03:12:48;12.10;99.90
14401;DHT22;7285;50.894;5.462;2022-08-21T03:15:19;12.10;99.90
14401;DHT22;7285;50.894;5.462;2022-08-21T03:17:47;12.10;99.90
14401;DHT22;7285;50.894;5.462;2022-08-21T03:20:17;12.10;99.90
14401;DHT22;7285;50.894;5.462;2022-08-21T03:22:45;12.10;99.90
14401;DHT22;7285;50.894;5.462;2022-08-21T03:25:14;12.00;99.90
14401;DHT22;7285;50.894;5.462;2022-08-21T03:27:41;12.10;99.90
14401;DHT22;7285;50.894;5.462;2022-08-21T03:30:10;12.10;99.90
14401;DHT22;7285;50.894;5.462;2022-08-21T03:32:38;12.10;1.00
14401;DHT22;7285;50.894;5.462;2022-08-21T03:35:07;12.10;1.00
14401;DHT22;7285;50.894;5.462;2022-08-21T03:37:35;12.10;1.00
14401;DHT22;7285;50.894;5.462;2022-08-21T03:40:03;12.20;1.00
14401;DHT22;7285;50.894;5.462;2022-08-21T03:42:30;12.00;1.00
14401;DHT22;7285;50.894;5.462;2022-08-21T03:44:57;12.00;99.90
14401;DHT22;7285;50.894;5.462;2022-08-21T03:47:25;11.90;99.90
14401;DHT22;7285;50.894;5.462;2022-08-21T03:49:52;11.90;99.90
14401;DHT22;7285;50.894;5.462;2022-08-21T03:52:20;11.90;99.90
14401;DHT22;7285;50.894;5.462;2022-08-21T03:54:46;11.90;99.90
14401;DHT22;7285;50.894;5.462;2022-08-21T03:57:23;11.80;99.90
14401;DHT22;7285;50.894;5.462;2022-08-21T03:59:50;11.80;99.90
14401;DHT22;7285;50.894;5.462;2022-08-21T04:02:19;11.80;99.90
14401;DHT22;7285;50.894;5.462;2022-08-21T04:04:47;11.80;99.90
14401;DHT22;7285;50.894;5.462;2022-08-21T04:07:14;11.80;99.90
14401;DHT22;7285;50.894;5.462;2022-08-21T04:09:41;11.80;1.00
14401;DHT22;7285;50.894;5.462;2022-08-21T04:12:08;11.80;1.00
14401;DHT22;7285;50.894;5.462;2022-08-21T04:14:36;11.80;1.00
14401;DHT22;7285;50.894;5.462;2022-08-21T04:17:04;11.80;1.00
14401;DHT22;7285;50.894;5.462;2022-08-21T04:19:31;11.70;1.00
14401;DHT22;7285;50.894;5.462;2022-08-21T04:21:57;11.70;1.00
14401;DHT22;7285;50.894;5.462;2022-08-21T04:24:24;11.70;1.00
14401;DHT22;7285;50.894;5.462;2022-08-21T04:26:51;11.80;1.00
14401;DHT22;7285;50.894;5.462;2022-08-21T04:29:18;11.80;1.00
14401;DHT22;7285;50.894;5.462;2022-08-21T04:31:47;11.80;1.00
14401;DHT22;7285;50.894;5.462;2022-08-21T04:34:15;11.80;1.00
14401;DHT22;7285;50.894;5.462;2022-08-21T04:36:42;11.80;1.00
14401;DHT22;7285;50.894;5.462;2022-08-21T04:39:08;11.80;1.00
14401;DHT22;7285;50.894;5.462;2022-08-21T04:41:35;11.80;1.00
14401;DHT22;7285;50.894;5.462;2022-08-21T04:44:06;11.90;1.00
14401;DHT22;7285;50.894;5.462;2022-08-21T04:46:34;11.90;1.00
14401;DHT22;7285;50.894;5.462;2022-08-21T04:49:02;11.90;1.00
14401;DHT22;7285;50.894;5.462;2022-08-21T04:51:32;11.80;1.00
14401;DHT22;7285;50.894;5.462;2022-08-21T04:54:05;11.80;1.00
14401;DHT22;7285;50.894;5.462;2022-08-21T04:56:36;11.80;1.00
14401;DHT22;7285;50.894;5.462;2022-08-21T04:59:06;11.80;1.00
14401;DHT22;7285;50.894;5.462;2022-08-21T05:01:37;11.90;1.00
14401;DHT22;7285;50.894;5.462;2022-08-21T05:04:08;11.80;1.00
14401;DHT22;7285;50.894;5.462;2022-08-21T05:06:38;11.80;1.00
14401;DHT22;7285;50.894;5.462;2022-08-21T05:09:08;11.90;1.00
14401;DHT22;7285;50.894;5.462;2022-08-21T05:11:36;11.90;1.00
14401;DHT22;7285;50.894;5.462;2022-08-21T05:14:03;11.90;1.00
14401;DHT22;7285;50.894;5.462;2022-08-21T05:16:30;11.90;1.00
14401;DHT22;7285;50.894;5.462;2022-08-21T05:18:57;11.90;1.00
14401;DHT22;7285;50.894;5.462;2022-08-21T05:21:26;11.90;1.00
14401;DHT22;7285;50.894;5.462;2022-08-21T05:23:53;12.00;1.00
14401;DHT22;7285;50.894;5.462;2022-08-21T05:26:20;12.00;99.90
14401;DHT22;7285;50.894;5.462;2022-08-21T05:28:47;12.00;99.90
14401;DHT22;7285;50.894;5.462;2022-08-21T05:31:13;12.10;99.90
14401;DHT22;7285;50.894;5.462;2022-08-21T05:33:41;12.20;1.00
14401;DHT22;7285;50.894;5.462;2022-08-21T05:36:08;12.30;1.00
14401;DHT22;7285;50.894;5.462;2022-08-21T05:38:36;12.40;1.00
14401;DHT22;7285;50.894;5.462;2022-08-21T05:41:03;12.50;1.00
14401;DHT22;7285;50.894;5.462;2022-08-21T05:43:46;12.50;99.90
14401;DHT22;7285;50.894;5.462;2022-08-21T05:46:13;12.60;99.90
14401;DHT22;7285;50.894;5.462;2022-08-21T05:48:55;12.70;99.90
14401;DHT22;7285;50.894;5.462;2022-08-21T05:51:22;12.80;99.90
14401;DHT22;7285;50.894;5.462;2022-08-21T05:53:50;13.00;99.90
14401;DHT22;7285;50.894;5.462;2022-08-21T05:56:17;13.10;99.90
14401;DHT22;7285;50.894;5.462;2022-08-21T05:58:44;13.10;1.00
14401;DHT22;7285;50.894;5.462;2022-08-21T06:01:11;13.40;1.00
14401;DHT22;7285;50.894;5.462;2022-08-21T06:03:39;13.50;99.90
14401;DHT22;7285;50.894;5.462;2022-08-21T06:06:09;13.70;49.90
14401;DHT22;7285;50.894;5.462;2022-08-21T06:08:36;13.90;1.00
14401;DHT22;7285;50.894;5.462;2022-08-21T06:11:06;13.90;1.00
14401;DHT22;7285;50.894;5.462;2022-08-21T06:13:33;14.00;1.00
14401;DHT22;7285;50.894;5.462;2022-08-21T06:16:17;14.10;1.00
14401;DHT22;7285;50.894;5.462;2022-08-21T06:18:44;14.30;99.90
14401;DHT22;7285;50.894;5.462;2022-08-21T06:21:12;14.40;99.90
14401;DHT22;7285;50.894;5.462;2022-08-21T06:23:42;14.50;99.90
14401;DHT22;7285;50.894;5.462;2022-08-21T06:26:46;14.60;99.90
14401;DHT22;7285;50.894;5.462;2022-08-21T06:29:15;14.70;73.00
14401;DHT22;7285;50.894;5.462;2022-08-21T06:31:43;14.90;1.00
14401;DHT22;7285;50.894;5.462;2022-08-21T06:34:10;15.00;1.00
14401;DHT22;7285;50.894;5.462;2022-08-21T06:36:40;15.10;1.00
14401;DHT22;7285;50.894;5.462;2022-08-21T06:39:07;15.30;1.00
14401;DHT22;7285;50.894;5.462;2022-08-21T06:41:40;15.30;1.00
14401;DHT22;7285;50.894;5.462;2022-08-21T06:44:08;15.50;1.00
14401;DHT22;7285;50.894;5.462;2022-08-21T06:46:36;15.60;1.00
14401;DHT22;7285;50.894;5.462;2022-08-21T06:49:03;15.70;99.90
14401;DHT22;7285;50.894;5.462;2022-08-21T06:51:30;15.80;99.90
14401;DHT22;7285;50.894;5.462;2022-08-21T06:53:57;15.90;99.90
14401;DHT22;7285;50.894;5.462;2022-08-21T06:56:42;16.10;99.90
14401;DHT22;7285;50.894;5.462;2022-08-21T06:59:10;16.20;99.90
14401;DHT22;7285;50.894;5.462;2022-08-21T07:01:37;16.30;96.30
14401;DHT22;7285;50.894;5.462;2022-08-21T07:04:05;16.50;1.00
14401;DHT22;7285;50.894;5.462;2022-08-21T07:06:33;16.70;1.00
14401;DHT22;7285;50.894;5.462;2022-08-21T07:09:04;16.90;1.00
14401;DHT22;7285;50.894;5.462;2022-08-21T07:11:32;17.00;1.00
14401;DHT22;7285;50.894;5.462;2022-08-21T07:13:58;17.20;1.00
14401;DHT22;7285;50.894;5.462;2022-08-21T07:16:34;17.40;1.00
14401;DHT22;7285;50.894;5.462;2022-08-21T07:19:02;17.60;1.00
14401;DHT22;7285;50.894;5.462;2022-08-21T07:21:29;17.70;1.00
14401;DHT22;7285;50.894;5.462;2022-08-21T07:23:55;17.80;1.00
14401;DHT22;7285;50.894;5.462;2022-08-21T07:26:23;18.00;1.00
14401;DHT22;7285;50.894;5.462;2022-08-21T07:28:51;18.20;1.00
14401;DHT22;7285;50.894;5.462;2022-08-21T07:31:20;18.30;1.00
14401;DHT22;7285;50.894;5.462;2022-08-21T07:33:49;18.50;1.00
14401;DHT22;7285;50.894;5.462;2022-08-21T07:36:16;18.60;1.00
14401;DHT22;7285;50.894;5.462;2022-08-21T07:38:44;18.70;1.00
14401;DHT22;7285;50.894;5.462;2022-08-21T07:41:15;18.80;1.00
14401;DHT22;7285;50.894;5.462;2022-08-21T07:43:42;19.00;1.00
14401;DHT22;7285;50.894;5.462;2022-08-21T07:46:09;19.10;1.00
14401;DHT22;7285;50.894;5.462;2022-08-21T07:48:37;19.00;1.00
14401;DHT22;7285;50.894;5.462;2022-08-21T07:51:08;19.20;1.00
14401;DHT22;7285;50.894;5.462;2022-08-21T07:53:36;19.30;1.00
14401;DHT22;7285;50.894;5.462;2022-08-21T07:56:05;19.40;1.00
14401;DHT22;7285;50.894;5.462;2022-08-21T07:58:33;19.40;1.00
14401;DHT22;7285;50.894;5.462;2022-08-21T08:01:00;19.40;1.00
14401;DHT22;7285;50.894;5.462;2022-08-21T08:03:27;19.50;1.00
14401;DHT22;7285;50.894;5.462;2022-08-21T08:05:54;19.50;1.00
14401;DHT22;7285;50.894;5.462;2022-08-21T08:08:23;19.60;1.00
14401;DHT22;7285;50.894;5.462;2022-08-21T08:10:50;19.70;1.00
14401;DHT22;7285;50.894;5.462;2022-08-21T08:13:17;19.80;1.00
14401;DHT22;7285;50.894;5.462;2022-08-21T08:15:44;20.00;1.00
14401;DHT22;7285;50.894;5.462;2022-08-21T08:18:11;20.40;1.00
14401;DHT22;7285;50.894;5.462;2022-08-21T08:20:39;20.50;1.00
14401;DHT22;7285;50.894;5.462;2022-08-21T08:23:06;20.60;1.00
14401;DHT22;7285;50.894;5.462;2022-08-21T08:25:35;20.50;1.00
14401;DHT22;7285;50.894;5.462;2022-08-21T08:28:02;20.60;1.00
14401;DHT22;7285;50.894;5.462;2022-08-21T08:30:29;20.60;1.00
14401;DHT22;7285;50.894;5.462;2022-08-21T08:32:56;20.70;99.90
14401;DHT22;7285;50.894;5.462;2022-08-21T08:35:25;20.80;99.90
14401;DHT22;7285;50.894;5.462;2022-08-21T08:37:54;20.80;99.90
14401;DHT22;7285;50.894;5.462;2022-08-21T08:40:25;20.80;99.90
14401;DHT22;7285;50.894;5.462;2022-08-21T08:42:57;20.90;99.90
14401;DHT22;7285;50.894;5.462;2022-08-21T08:45:24;20.90;99.90
14401;DHT22;7285;50.894;5.462;2022-08-21T08:47:53;21.00;99.90
14401;DHT22;7285;50.894;5.462;2022-08-21T08:50:27;21.20;99.90
14401;DHT22;7285;50.894;5.462;2022-08-21T08:52:58;21.40;99.90
14401;DHT22;7285;50.894;5.462;2022-08-21T08:55:30;21.50;99.90
14401;DHT22;7285;50.894;5.462;2022-08-21T08:58:01;21.90;99.90
14401;DHT22;7285;50.894;5.462;2022-08-21T09:00:29;22.00;99.90
14401;DHT22;7285;50.894;5.462;2022-08-21T09:03:00;22.10;99.90
14401;DHT22;7285;50.894;5.462;2022-08-21T09:05:30;22.20;99.90
14401;DHT22;7285;50.894;5.462;2022-08-21T09:08:20;22.10;99.90
14401;DHT22;7285;50.894;5.462;2022-08-21T09:11:01;22.10;99.90
14401;DHT22;7285;50.894;5.462;2022-08-21T09:13:41;22.40;99.90
14401;DHT22;7285;50.894;5.462;2022-08-21T09:16:13;22.80;99.90
14401;DHT22;7285;50.894;5.462;2022-08-21T09:18:54;22.50;99.90
14401;DHT22;7285;50.894;5.462;2022-08-21T09:21:28;22.40;99.90
14401;DHT22;7285;50.894;5.462;2022-08-21T09:24:01;22.40;99.90
14401;DHT22;7285;50.894;5.462;2022-08-21T09:26:32;22.70;99.90
14401;DHT22;7285;50.894;5.462;2022-08-21T09:29:04;22.80;99.90
14401;DHT22;7285;50.894;5.462;2022-08-21T09:31:34;22.90;99.90
14401;DHT22;7285;50.894;5.462;2022-08-21T09:34:05;23.00;99.90
14401;DHT22;7285;50.894;5.462;2022-08-21T09:36:37;23.10;99.90
14401;DHT22;7285;50.894;5.462;2022-08-21T09:39:05;23.10;99.90
14401;DHT22;7285;50.894;5.462;2022-08-21T09:41:34;23.00;99.90
14401;DHT22;7285;50.894;5.462;2022-08-21T09:44:04;23.00;99.90
14401;DHT22;7285;50.894;5.462;2022-08-21T09:46:31;22.80;99.90
14401;DHT22;7285;50.894;5.462;2022-08-21T09:48:59;22.80;99.90
14401;DHT22;7285;50.894;5.462;2022-08-21T09:51:28;22.80;99.90
14401;DHT22;7285;50.894;5.462;2022-08-21T09:54:07;23.00;99.90
14401;DHT22;7285;50.894;5.462;2022-08-21T09:56:39;23.20;99.90
14401;DHT22;7285;50.894;5.462;2022-08-21T09:59:28;23.40;99.90
14401;DHT22;7285;50.894;5.462;2022-08-21T10:01:58;23.40;99.90
14401;DHT22;7285;50.894;5.462;2022-08-21T10:04:29;23.40;99.90
14401;DHT22;7285;50.894;5.462;2022-08-21T10:07:06;23.80;99.90
14401;DHT22;7285;50.894;5.462;2022-08-21T10:09:33;23.90;99.90
14401;DHT22;7285;50.894;5.462;2022-08-21T10:12:15;24.00;99.90
14401;DHT22;7285;50.894;5.462;2022-08-21T10:14:54;24.40;99.90
14401;DHT22;7285;50.894;5.462;2022-08-21T10:17:29;24.40;99.90
14401;DHT22;7285;50.894;5.462;2022-08-21T10:20:03;24.50;99.90
14401;DHT22;7285;50.894;5.462;2022-08-21T10:22:42;24.50;99.90
14401;DHT22;7285;50.894;5.462;2022-08-21T10:25:19;24.80;99.90
14401;DHT22;7285;50.894;5.462;2022-08-21T10:27:56;24.50;99.90
14401;DHT22;7285;50.894;5.462;2022-08-21T10:30:35;24.70;99.90
14401;DHT22;7285;50.894;5.462;2022-08-21T10:33:16;24.60;99.90
14401;DHT22;7285;50.894;5.462;2022-08-21T10:35:52;24.70;99.90
14401;DHT22;7285;50.894;5.462;2022-08-21T10:38:40;24.60;99.90
14401;DHT22;7285;50.894;5.462;2022-08-21T10:41:16;24.50;99.90
14401;DHT22;7285;50.894;5.462;2022-08-21T10:43:52;24.70;99.90
14401;DHT22;7285;50.894;5.462;2022-08-21T10:46:38;25.20;99.90
14401;DHT22;7285;50.894;5.462;2022-08-21T10:49:22;25.40;99.90
14401;DHT22;7285;50.894;5.462;2022-08-21T10:51:56;25.40;99.90
14401;DHT22;7285;50.894;5.462;2022-08-21T10:54:33;25.10;99.90
14401;DHT22;7285;50.894;5.462;2022-08-21T10:57:07;25.00;99.90
14401;DHT22;7285;50.894;5.462;2022-08-21T10:59:42;25.20;99.90
14401;DHT22;7285;50.894;5.462;2022-08-21T11:02:17;25.20;99.90
14401;DHT22;7285;50.894;5.462;2022-08-21T11:04:52;25.00;99.90
14401;DHT22;7285;50.894;5.462;2022-08-21T11:07:25;25.00;99.90
14401;DHT22;7285;50.894;5.462;2022-08-21T11:09:56;24.80;99.90
14401;DHT22;7285;50.894;5.462;2022-08-21T11:12:30;24.50;99.90
14401;DHT22;7285;50.894;5.462;2022-08-21T11:15:07;24.80;99.90
14401;DHT22;7285;50.894;5.462;2022-08-21T11:17:43;24.90;99.90
14401;DHT22;7285;50.894;5.462;2022-08-21T11:20:15;25.30;99.90
14401;DHT22;7285;50.894;5.462;2022-08-21T11:22:47;25.20;99.90
14401;DHT22;7285;50.894;5.462;2022-08-21T11:25:21;25.40;99.90
14401;DHT22;7285;50.894;5.462;2022-08-21T11:27:52;25.30;99.90
14401;DHT22;7285;50.894;5.462;2022-08-21T11:30:21;25.70;99.90
14401;DHT22;7285;50.894;5.462;2022-08-21T11:33:04;26.10;99.90
14401;DHT22;7285;50.894;5.462;2022-08-21T11:35:39;26.20;99.90
14401;DHT22;7285;50.894;5.462;2022-08-21T11:38:22;26.30;99.90
14401;DHT22;7285;50.894;5.462;2022-08-21T11:41:03;26.60;99.90
14401;DHT22;7285;50.894;5.462;2022-08-21T11:43:37;26.10;99.90
14401;DHT22;7285;50.894;5.462;2022-08-21T11:46:19;26.50;99.90
14401;DHT22;7285;50.894;5.462;2022-08-21T11:49:04;26.90;99.90
14401;DHT22;7285;50.894;5.462;2022-08-21T11:51:36;26.50;99.90
14401;DHT22;7285;50.894;5.462;2022-08-21T11:54:21;26.30;99.90
14401;DHT22;7285;50.894;5.462;2022-08-21T11:56:55;26.80;99.90
14401;DHT22;7285;50.894;5.462;2022-08-21T11:59:28;26.90;99.90
14401;DHT22;7285;50.894;5.462;2022-08-21T12:01:59;27.00;99.90
14401;DHT22;7285;50.894;5.462;2022-08-21T12:04:29;26.40;99.90
14401;DHT22;7285;50.894;5.462;2022-08-21T12:07:10;25.90;99.90
14401;DHT22;7285;50.894;5.462;2022-08-21T12:09:37;25.70;99.90
14401;DHT22;7285;50.894;5.462;2022-08-21T12:12:06;25.70;99.90
14401;DHT22;7285;50.894;5.462;2022-08-21T12:14:40;25.20;99.90
14401;DHT22;7285;50.894;5.462;2022-08-21T12:17:08;24.80;99.90
14401;DHT22;7285;50.894;5.462;2022-08-21T12:19:44;25.00;99.90
14401;DHT22;7285;50.894;5.462;2022-08-21T12:22:13;25.00;99.90
14401;DHT22;7285;50.894;5.462;2022-08-21T12:24:42;25.50;99.90
14401;DHT22;7285;50.894;5.462;2022-08-21T12:27:19;26.00;99.90
14401;DHT22;7285;50.894;5.462;2022-08-21T12:29:52;26.20;99.90
14401;DHT22;7285;50.894;5.462;2022-08-21T12:32:26;26.30;99.90
14401;DHT22;7285;50.894;5.462;2022-08-21T12:34:57;26.00;99.90
14401;DHT22;7285;50.894;5.462;2022-08-21T12:37:37;25.80;99.90
14401;DHT22;7285;50.894;5.462;2022-08-21T12:40:11;25.90;99.90
14401;DHT22;7285;50.894;5.462;2022-08-21T12:42:44;25.90;99.90
14401;DHT22;7285;50.894;5.462;2022-08-21T12:45:18;26.20;99.90
14401;DHT22;7285;50.894;5.462;2022-08-21T12:47:48;26.40;99.90
14401;DHT22;7285;50.894;5.462;2022-08-21T12:50:19;26.00;99.90
14401;DHT22;7285;50.894;5.462;2022-08-21T12:52:54;26.10;99.90
14401;DHT22;7285;50.894;5.462;2022-08-21T12:55:27;26.10;99.90
14401;DHT22;7285;50.894;5.462;2022-08-21T12:57:54;25.30;99.90
14401;DHT22;7285;50.894;5.462;2022-08-21T13:00:24;25.10;99.90
14401;DHT22;7285;50.894;5.462;2022-08-21T13:02:52;25.10;99.90
14401;DHT22;7285;50.894;5.462;2022-08-21T13:05:42;25.10;99.90
14401;DHT22;7285;50.894;5.462;2022-08-21T13:08:12;25.00;99.90
14401;DHT22;7285;50.894;5.462;2022-08-21T13:10:40;24.80;99.90
14401;DHT22;7285;50.894;5.462;2022-08-21T13:13:11;25.10;99.90
14401;DHT22;7285;50.894;5.462;2022-08-21T13:15:41;25.50;99.90
14401;DHT22;7285;50.894;5.462;2022-08-21T13:18:08;25.20;99.90
14401;DHT22;7285;50.894;5.462;2022-08-21T13:20:47;25.30;99.90
14401;DHT22;7285;50.894;5.462;2022-08-21T13:23:20;25.40;99.90
14401;DHT22;7285;50.894;5.462;2022-08-21T13:25:47;25.70;99.90
14401;DHT22;7285;50.894;5.462;2022-08-21T13:28:15;26.30;99.90
14401;DHT22;7285;50.894;5.462;2022-08-21T13:30:44;26.60;99.90
14401;DHT22;7285;50.894;5.462;2022-08-21T13:33:14;26.60;99.90
14401;DHT22;7285;50.894;5.462;2022-08-21T13:35:57;26.20;99.90
14401;DHT22;7285;50.894;5.462;2022-08-21T13:38:30;26.70;99.90
14401;DHT22;7285;50.894;5.462;2022-08-21T13:41:01;26.80;99.90
14401;DHT22;7285;50.894;5.462;2022-08-21T13:43:32;27.40;99.90
14401;DHT22;7285;50.894;5.462;2022-08-21T13:46:00;27.90;99.90
14401;DHT22;7285;50.894;5.462;2022-08-21T13:48:29;27.90;99.90
14401;DHT22;7285;50.894;5.462;2022-08-21T13:50:58;28.10;99.90
14401;DHT22;7285;50.894;5.462;2022-08-21T13:53:29;27.80;99.90
14401;DHT22;7285;50.894;5.462;2022-08-21T13:55:57;27.60;99.90
14401;DHT22;7285;50.894;5.462;2022-08-21T13:58:25;27.90;99.90
14401;DHT22;7285;50.894;5.462;2022-08-21T14:00:54;27.80;99.90
14401;DHT22;7285;50.894;5.462;2022-08-21T14:03:31;27.90;99.90
14401;DHT22;7285;50.894;5.462;2022-08-21T14:06:00;27.80;99.90
14401;DHT22;7285;50.894;5.462;2022-08-21T14:08:31;28.00;99.90
14401;DHT22;7285;50.894;5.462;2022-08-21T14:10:58;28.00;99.90
14401;DHT22;7285;50.894;5.462;2022-08-21T14:13:36;27.80;99.90
14401;DHT22;7285;50.894;5.462;2022-08-21T14:16:12;27.70;99.90
14401;DHT22;7285;50.894;5.462;2022-08-21T14:18:51;27.70;99.90
14401;DHT22;7285;50.894;5.462;2022-08-21T14:21:30;27.60;99.90
14401;DHT22;7285;50.894;5.462;2022-08-21T14:24:07;27.60;99.90
14401;DHT22;7285;50.894;5.462;2022-08-21T14:26:37;27.70;99.90
14401;DHT22;7285;50.894;5.462;2022-08-21T14:29:13;27.00;99.90
14401;DHT22;7285;50.894;5.462;2022-08-21T14:31:40;26.70;99.90
14401;DHT22;7285;50.894;5.462;2022-08-21T14:34:10;26.90;99.90
14401;DHT22;7285;50.894;5.462;2022-08-21T14:36:40;27.00;99.90
14401;DHT22;7285;50.894;5.462;2022-08-21T14:39:08;26.70;99.90
14401;DHT22;7285;50.894;5.462;2022-08-21T14:41:36;26.40;99.90
14401;DHT22;7285;50.894;5.462;2022-08-21T14:44:03;26.30;99.90
14401;DHT22;7285;50.894;5.462;2022-08-21T14:46:31;26.10;99.90
14401;DHT22;7285;50.894;5.462;2022-08-21T14:48:59;26.10;99.90
14401;DHT22;7285;50.894;5.462;2022-08-21T14:51:26;26.10;99.90
14401;DHT22;7285;50.894;5.462;2022-08-21T14:53:54;26.10;99.90
14401;DHT22;7285;50.894;5.462;2022-08-21T14:56:21;26.10;99.90
14401;DHT22;7285;50.894;5.462;2022-08-21T14:58:50;26.20;99.90
14401;DHT22;7285;50.894;5.462;2022-08-21T15:01:20;26.10;99.90
14401;DHT22;7285;50.894;5.462;2022-08-21T15:03:47;25.50;99.90
14401;DHT22;7285;50.894;5.462;2022-08-21T15:06:15;25.50;99.90
14401;DHT22;7285;50.894;5.462;2022-08-21T15:08:43;25.50;99.90
14401;DHT22;7285;50.894;5.462;2022-08-21T15:11:16;25.50;99.90
14401;DHT22;7285;50.894;5.462;2022-08-21T15:13:43;25.60;99.90
14401;DHT22;7285;50.894;5.462;2022-08-21T15:16:11;25.90;99.90
14401;DHT22;7285;50.894;5.462;2022-08-21T15:18:39;26.30;99.90
14401;DHT22;7285;50.894;5.462;2022-08-21T15:21:07;25.90;99.90
14401;DHT22;7285;50.894;5.462;2022-08-21T15:23:34;25.60;99.90
14401;DHT22;7285;50.894;5.462;2022-08-21T15:26:02;25.50;99.90
14401;DHT22;7285;50.894;5.462;2022-08-21T15:28:31;25.40;99.90
14401;DHT22;7285;50.894;5.462;2022-08-21T15:31:00;25.40;99.90
14401;DHT22;7285;50.894;5.462;2022-08-21T15:33:27;25.70;99.90
14401;DHT22;7285;50.894;5.462;2022-08-21T15:35:54;25.40;99.90
14401;DHT22;7285;50.894;5.462;2022-08-21T15:38:21;25.30;99.90
14401;DHT22;7285;50.894;5.462;2022-08-21T15:40:48;25.30;99.90
14401;DHT22;7285;50.894;5.462;2022-08-21T15:43:22;25.20;99.90
14401;DHT22;7285;50.894;5.462;2022-08-21T15:45:51;25.10;99.90
14401;DHT22;7285;50.894;5.462;2022-08-21T15:48:18;25.20;99.90
14401;DHT22;7285;50.894;5.462;2022-08-21T15:50:45;25.10;99.90
14401;DHT22;7285;50.894;5.462;2022-08-21T15:53:12;24.90;99.90
14401;DHT22;7285;50.894;5.462;2022-08-21T15:55:39;24.90;99.90
14401;DHT22;7285;50.894;5.462;2022-08-21T15:58:06;24.70;99.90
14401;DHT22;7285;50.894;5.462;2022-08-21T16:00:35;24.80;99.90
14401;DHT22;7285;50.894;5.462;2022-08-21T16:03:05;24.90;99.90
14401;DHT22;7285;50.894;5.462;2022-08-21T16:05:33;24.90;99.90
14401;DHT22;7285;50.894;5.462;2022-08-21T16:07:59;25.10;99.90
14401;DHT22;7285;50.894;5.462;2022-08-21T16:10:27;25.00;99.90
14401;DHT22;7285;50.894;5.462;2022-08-21T16:12:58;25.10;99.90
14401;DHT22;7285;50.894;5.462;2022-08-21T16:15:26;25.10;99.90